Time;durP1;ratioP1;P1;durP2;ratioP2;P2;SDS_P1;SDS_P2;PMS_P1;PMS_P2;Temp;Humidity;BMP_temperature;BMP_pressure;BME280_temperature;BME280_humidity;BME280_pressure;Samples;Min_cycle;Max_cycle;Signal;HPM_P1;HPM_P2
2022/04/17 00:01:39;;;;;;;19.27;9.32;;;;;;;8.83;56.65;102975.91;5015270;28;20057;-42
2022/04/17 00:04:05;;;;;;;17.17;8.63;;;;;;;8.79;55.16;102969.91;5017109;28;20472;-44
2022/04/17 00:06:30;;;;;;;20.60;9.52;;;;;;;8.75;54.59;102971.06;5016293;28;20021;-43
2022/04/17 00:08:57;;;;;;;21.45;10.38;;;;;;;8.66;55.08;102961.00;5014754;28;20029;-43
2022/04/17 00:11:22;;;;;;;17.20;9.52;;;;;;;8.62;55.27;102970.97;5015559;28;20372;-42
2022/04/17 00:13:48;;;;;;;18.58;9.90;;;;;;;8.54;55.06;102960.81;5017036;28;20108;-43
2022/04/17 00:16:13;;;;;;;17.88;9.30;;;;;;;8.48;54.95;102961.19;5016195;28;20926;-43
2022/04/17 00:18:38;;;;;;;18.98;9.63;;;;;;;8.41;53.52;102971.31;5005531;28;20018;-42
2022/04/17 00:21:04;;;;;;;19.63;9.80;;;;;;;8.41;55.47;102973.13;4998620;28;20457;-42
2022/04/17 00:23:29;;;;;;;21.83;9.45;;;;;;;8.36;54.31;102969.91;5016036;28;20629;-41
2022/04/17 00:25:55;;;;;;;18.70;9.57;;;;;;;8.34;56.49;102963.81;5016098;28;20037;-41
2022/04/17 00:28:20;;;;;;;19.73;9.63;;;;;;;8.34;56.07;102971.81;5015025;28;20511;-44
2022/04/17 00:30:45;;;;;;;18.83;9.48;;;;;;;8.30;54.73;102967.59;5013738;28;20097;-43
2022/04/17 00:33:11;;;;;;;22.52;9.90;;;;;;;8.27;56.68;102968.66;5013379;28;20018;-44
2022/04/17 00:35:36;;;;;;;20.73;9.68;;;;;;;8.23;56.63;102961.78;5013210;28;20521;-44
2022/04/17 00:38:02;;;;;;;19.25;9.82;;;;;;;8.19;55.84;102966.44;5014603;28;20061;-42
2022/04/17 00:40:28;;;;;;;23.67;10.43;;;;;;;8.17;56.91;102960.38;5014876;28;20112;-43
2022/04/17 00:42:53;;;;;;;20.98;10.10;;;;;;;8.12;56.06;102967.78;5014847;28;20429;-43
2022/04/17 00:45:19;;;;;;;22.65;9.90;;;;;;;8.11;56.56;102965.19;5014839;28;20396;-42
2022/04/17 00:47:44;;;;;;;17.27;10.02;;;;;;;8.07;58.07;102969.00;5015201;28;20037;-42
2022/04/17 00:50:09;;;;;;;16.33;9.23;;;;;;;8.05;58.45;102966.44;5015020;28;20017;-44
2022/04/17 00:52:36;;;;;;;20.45;9.57;;;;;;;8.04;58.68;102959.41;5013294;28;20194;-42
2022/04/17 00:55:05;;;;;;;19.35;9.68;;;;;;;8.01;59.15;102967.56;5007785;28;20044;-45
2022/04/17 00:57:31;;;;;;;21.13;10.02;;;;;;;7.94;57.73;102959.13;5007389;28;20018;-44
2022/04/17 00:59:57;;;;;;;21.75;9.88;;;;;;;7.90;58.54;102951.41;4999049;28;20094;-43
2022/04/17 01:02:23;;;;;;;17.15;9.98;;;;;;;7.85;57.21;102955.16;5017004;28;20152;-42
2022/04/17 01:04:48;;;;;;;20.13;9.80;;;;;;;7.80;58.55;102945.75;5018785;28;20119;-44
2022/04/17 01:07:15;;;;;;;24.70;10.23;;;;;;;7.74;56.67;102954.97;5028006;28;20026;-44
2022/04/17 01:09:41;;;;;;;18.98;9.90;;;;;;;7.68;56.53;102954.47;5016699;28;20067;-44
2022/04/17 01:12:08;;;;;;;21.23;10.10;;;;;;;7.65;57.42;102953.72;5017910;28;20095;-44
2022/04/17 01:14:38;;;;;;;18.38;9.38;;;;;;;7.62;57.65;102960.97;5018990;28;20033;-44
2022/04/17 01:17:04;;;;;;;18.52;9.60;;;;;;;7.58;56.29;102955.00;5018447;28;20029;-43
2022/04/17 01:19:37;;;;;;;21.60;9.63;;;;;;;7.57;59.02;102955.97;5016003;28;20033;-44
2022/04/17 01:22:04;;;;;;;17.63;9.98;;;;;;;7.57;58.42;102960.41;5010360;28;20029;-43
2022/04/17 01:27:13;;;;;;;17.02;8.65;;;;;;;7.51;57.23;102958.97;5006089;28;20164;-43
2022/04/17 01:29:40;;;;;;;20.67;9.40;;;;;;;7.51;59.63;102956.31;5006726;28;20159;-43
2022/04/17 01:32:08;;;;;;;16.65;8.73;;;;;;;7.48;58.12;102964.44;5018491;28;20647;-45
2022/04/17 01:34:34;;;;;;;15.15;8.85;;;;;;;7.47;60.23;102960.94;5015325;28;20504;-43
2022/04/17 01:37:00;;;;;;;19.02;9.20;;;;;;;7.42;58.51;102957.69;5014119;28;20111;-40
2022/04/17 01:39:26;;;;;;;16.80;8.57;;;;;;;7.43;60.52;102963.88;5014509;28;20144;-41
2022/04/17 01:41:52;;;;;;;15.77;8.95;;;;;;;7.40;59.54;102959.59;5017307;28;20616;-45
2022/04/17 01:44:18;;;;;;;17.60;9.23;;;;;;;7.37;58.62;102957.09;5014657;28;20487;-42
2022/04/17 01:46:47;;;;;;;18.58;9.18;;;;;;;7.33;60.50;102952.03;5011103;28;20040;-42
2022/04/17 01:49:15;;;;;;;18.17;8.90;;;;;;;7.29;59.56;102959.34;5011590;28;20018;-44
2022/04/17 01:51:41;;;;;;;19.50;8.75;;;;;;;7.24;59.56;102950.78;5017183;28;20136;-43
2022/04/17 01:54:18;;;;;;;16.42;8.70;;;;;;;7.21;58.57;102953.59;5016474;28;20037;-42
2022/04/17 01:56:47;;;;;;;17.20;9.07;;;;;;;7.18;59.40;102949.34;5015096;28;20033;-42
2022/04/17 01:59:13;;;;;;;18.40;8.75;;;;;;;7.15;59.24;102951.31;5010960;28;20135;-42
2022/04/17 02:01:39;;;;;;;16.45;8.30;;;;;;;7.12;59.59;102946.16;5015313;28;20099;-41
2022/04/17 02:04:06;;;;;;;16.70;8.60;;;;;;;7.07;61.16;102955.22;5016364;28;20029;-46
2022/04/17 02:06:32;;;;;;;15.80;8.32;;;;;;;7.06;62.52;102944.69;5010198;28;20018;-41
2022/04/17 02:08:58;;;;;;;14.02;8.02;;;;;;;7.01;59.28;102942.31;5014546;28;20609;-42
2022/04/17 02:11:26;;;;;;;18.75;8.25;;;;;;;6.97;59.66;102940.75;5015418;28;20056;-42
2022/04/17 02:13:51;;;;;;;16.73;8.38;;;;;;;6.96;61.45;102940.81;5016728;28;20061;-43
2022/04/17 02:16:17;;;;;;;16.80;8.15;;;;;;;6.93;62.45;102949.84;5016705;28;20064;-43
2022/04/17 02:18:47;;;;;;;16.02;8.65;;;;;;;6.89;61.53;102938.53;5016402;28;20420;-44
2022/04/17 02:21:13;;;;;;;17.23;8.48;;;;;;;6.87;63.31;102940.44;5015484;28;20060;-45
2022/04/17 02:23:42;;;;;;;16.60;8.18;;;;;;;6.84;63.20;102939.72;5016306;28;20325;-42
2022/04/17 02:26:09;;;;;;;20.45;7.95;;;;;;;6.82;62.55;102933.63;5016565;28;21002;-47
2022/04/17 02:28:36;;;;;;;14.63;7.68;;;;;;;6.78;62.67;102940.06;5013389;28;20026;-46
2022/04/17 02:31:03;;;;;;;14.95;8.10;;;;;;;6.76;63.16;102934.84;4999054;28;20152;-45
2022/04/17 02:33:28;;;;;;;23.55;8.20;;;;;;;6.67;62.88;102940.63;5014755;28;20029;-47
2022/04/17 02:35:54;;;;;;;13.68;7.70;;;;;;;6.61;64.33;102941.84;5015021;28;20036;-46
2022/04/17 02:38:19;;;;;;;14.95;7.55;;;;;;;6.52;63.04;102935.25;5014380;28;20573;-45
2022/04/17 02:40:45;;;;;;;18.58;7.70;;;;;;;6.49;65.09;102934.56;5010492;28;20364;-46
2022/04/17 02:43:10;;;;;;;14.90;7.90;;;;;;;6.44;65.84;102933.94;5016419;28;20025;-46
2022/04/17 02:45:36;;;;;;;16.30;7.55;;;;;;;6.40;66.14;102927.06;5015735;28;20468;-45
2022/04/17 02:48:01;;;;;;;15.27;7.63;;;;;;;6.38;65.87;102929.81;5015049;28;20043;-46
2022/04/17 02:50:26;;;;;;;13.52;7.57;;;;;;;6.36;66.90;102926.38;5016165;28;20044;-45
2022/04/17 02:52:55;;;;;;;12.77;7.65;;;;;;;6.31;67.32;102926.66;5015623;28;20193;-46
2022/04/17 02:55:21;;;;;;;13.43;7.40;;;;;;;6.28;66.04;102926.81;5014881;28;20100;-45
2022/04/17 02:57:46;;;;;;;13.35;7.35;;;;;;;6.27;67.57;102930.38;5016338;28;20033;-49
2022/04/17 03:00:12;;;;;;;12.30;7.22;;;;;;;6.24;66.94;102924.38;5015410;28;20103;-48
2022/04/17 03:05:38;;;;;;;12.60;7.13;;;;;;;6.18;66.86;102916.75;5007389;28;20125;-48
2022/04/17 03:08:09;;;;;;;13.70;8.18;;;;;;;6.14;65.72;102910.75;5000415;28;20091;-47
2022/04/17 03:10:36;;;;;;;13.95;7.25;;;;;;;6.11;67.40;102911.78;5015440;28;20028;-48
2022/04/17 03:13:03;;;;;;;17.13;7.47;;;;;;;6.06;66.53;102908.50;5015208;28;20048;-45
2022/04/17 03:15:28;;;;;;;12.90;7.40;;;;;;;6.00;66.32;102906.16;5006812;28;20064;-47
2022/04/17 03:17:53;;;;;;;13.52;6.88;;;;;;;6.02;66.05;102911.41;5011162;28;20111;-47
2022/04/17 03:20:19;;;;;;;16.25;7.07;;;;;;;6.00;67.36;102915.94;5016289;28;20040;-45
2022/04/17 03:22:44;;;;;;;12.93;7.07;;;;;;;5.94;67.43;102907.31;5015020;28;20635;-44
2022/04/17 03:25:10;;;;;;;13.52;7.95;;;;;;;5.88;66.34;102912.94;5014694;28;20032;-47
2022/04/17 03:27:36;;;;;;;17.15;7.85;;;;;;;5.83;68.41;102900.88;5015752;28;20025;-45
2022/04/17 03:30:02;;;;;;;13.15;6.97;;;;;;;5.80;69.37;102904.50;5000717;28;20072;-46
2022/04/17 03:32:28;;;;;;;17.40;7.38;;;;;;;5.75;69.93;102901.25;5012837;28;20143;-46
2022/04/17 03:34:53;;;;;;;15.35;8.32;;;;;;;5.70;68.92;102909.47;5008859;28;20052;-45
2022/04/17 03:37:18;;;;;;;17.27;7.28;;;;;;;5.68;69.25;102900.69;5012492;28;20045;-44
2022/04/17 03:39:48;;;;;;;18.85;7.90;;;;;;;5.66;69.68;102910.53;5014590;28;20316;-45
2022/04/17 03:42:14;;;;;;;12.93;7.55;;;;;;;5.64;70.39;102907.09;5015256;28;20246;-47
2022/04/17 03:44:40;;;;;;;19.48;8.45;;;;;;;5.60;71.20;102906.41;5012414;28;20088;-47
2022/04/17 03:47:06;;;;;;;15.23;8.05;;;;;;;5.54;71.71;102904.06;5013977;28;20472;-45
2022/04/17 03:49:31;;;;;;;13.90;7.57;;;;;;;5.49;72.03;102908.72;5013829;28;20049;-46
2022/04/17 03:51:57;;;;;;;13.75;7.28;;;;;;;5.45;72.79;102891.28;5015199;28;20055;-47
2022/04/17 03:54:22;;;;;;;12.80;7.15;;;;;;;5.42;71.79;102894.06;5014014;28;20566;-45
2022/04/17 03:56:47;;;;;;;12.00;7.28;;;;;;;5.41;72.22;102905.59;5011304;28;20083;-45
2022/04/17 03:59:14;;;;;;;13.88;6.97;;;;;;;5.37;72.61;102898.75;5001402;28;20021;-47
2022/04/17 04:01:40;;;;;;;16.02;8.80;;;;;;;5.31;75.42;102899.94;5009857;28;20045;-47
2022/04/17 04:04:06;;;;;;;14.82;9.00;;;;;;;5.22;77.30;102890.63;5012175;28;20068;-45
2022/04/17 04:06:32;;;;;;;20.52;8.95;;;;;;;5.15;78.75;102891.84;5014063;28;20139;-49
2022/04/17 04:08:57;;;;;;;16.23;9.38;;;;;;;5.11;79.70;102884.13;5007851;28;20125;-47
2022/04/17 04:11:23;;;;;;;17.13;8.65;;;;;;;5.05;79.94;102895.88;5014552;28;20437;-47
2022/04/17 04:13:48;;;;;;;13.20;7.88;;;;;;;5.06;79.06;102884.38;5014177;28;20033;-45
2022/04/17 04:16:14;;;;;;;14.35;7.72;;;;;;;5.04;76.79;102878.28;5013425;28;20029;-45
2022/04/17 04:18:39;;;;;;;13.18;7.63;;;;;;;5.03;75.88;102876.56;5011552;28;20113;-46
2022/04/17 04:21:05;;;;;;;17.60;7.10;;;;;;;5.03;76.40;102879.22;5014532;28;20116;-45
2022/04/17 04:23:34;;;;;;;16.73;7.45;;;;;;;5.04;76.58;102879.16;5013783;28;20381;-45
2022/04/17 04:26:00;;;;;;;15.43;7.55;;;;;;;5.05;77.01;102872.06;5007632;28;20125;-48
2022/04/17 04:28:37;;;;;;;13.40;7.63;;;;;;;5.06;77.10;102868.47;5015640;28;20380;-46
2022/04/17 04:31:06;;;;;;;13.82;7.38;;;;;;;5.05;75.94;102874.69;5018538;28;20464;-47
2022/04/17 04:33:36;;;;;;;12.75;7.20;;;;;;;4.99;75.28;102872.34;5017429;28;20052;-50
2022/04/17 04:36:04;;;;;;;14.18;7.38;;;;;;;4.96;75.94;102864.56;5018426;28;20113;-46
2022/04/17 04:38:29;;;;;;;12.60;7.28;;;;;;;4.97;76.32;102874.22;5016888;28;20526;-47
2022/04/17 04:40:55;;;;;;;13.63;7.80;;;;;;;4.93;75.19;102865.56;5007059;28;20033;-47
2022/04/17 04:43:20;;;;;;;12.77;7.35;;;;;;;4.95;77.12;102873.44;5017686;28;20104;-46
2022/04/17 04:51:15;;;;;;;12.15;7.50;;;;;;;4.98;75.21;102860.91;5012012;28;20040;-46
2022/04/17 04:53:41;;;;;;;15.02;7.28;;;;;;;5.00;75.36;102858.19;5013586;28;20515;-45
2022/04/17 04:56:06;;;;;;;12.98;7.03;;;;;;;4.98;74.82;102857.41;5008299;28;20357;-50
2022/04/17 04:58:32;;;;;;;14.77;7.57;;;;;;;4.97;75.94;102859.19;5002365;28;20048;-48
2022/04/17 05:00:58;;;;;;;13.10;7.15;;;;;;;4.98;75.22;102862.69;5018162;28;20041;-47
2022/04/17 05:03:24;;;;;;;11.50;7.20;;;;;;;4.95;74.96;102863.69;5016706;28;20059;-46
2022/04/17 05:05:49;;;;;;;14.30;7.45;;;;;;;4.86;76.45;102872.94;5018543;28;20523;-46
2022/04/17 05:08:14;;;;;;;12.88;8.02;;;;;;;4.80;78.71;102875.03;5017580;28;20029;-47
2022/04/17 05:10:39;;;;;;;15.80;8.15;;;;;;;4.75;79.07;102872.63;5018141;28;20079;-44
2022/04/17 05:13:05;;;;;;;12.82;7.50;;;;;;;4.72;79.00;102867.47;5018650;28;20377;-45
2022/04/17 05:15:30;;;;;;;12.10;7.82;;;;;;;4.73;79.53;102868.31;5015714;28;20026;-44
2022/04/17 05:17:56;;;;;;;14.57;7.90;;;;;;;4.75;80.25;102867.31;5012283;28;20361;-49
2022/04/17 05:20:21;;;;;;;18.00;8.00;;;;;;;4.79;79.38;102875.97;5017673;28;20035;-48
2022/04/17 05:22:53;;;;;;;15.73;7.82;;;;;;;4.81;79.41;102876.75;5016424;28;20029;-48
2022/04/17 05:25:18;;;;;;;13.95;7.82;;;;;;;4.83;79.46;102886.31;5006533;28;20033;-44
2022/04/17 05:27:44;;;;;;;15.98;8.00;;;;;;;4.89;81.05;102881.66;5018074;28;20025;-46
2022/04/17 05:30:09;;;;;;;17.00;8.30;;;;;;;4.94;80.87;102880.53;5009654;28;20209;-47
2022/04/17 05:32:35;;;;;;;18.90;7.75;;;;;;;5.00;80.01;102866.97;5014967;28;20049;-45
2022/04/17 05:35:00;;;;;;;18.13;8.02;;;;;;;5.08;78.56;102863.13;5016906;28;20064;-44
2022/04/17 05:37:27;;;;;;;14.55;7.53;;;;;;;5.17;78.00;102868.78;5016828;28;20065;-45
2022/04/17 05:39:52;;;;;;;13.13;7.25;;;;;;;5.23;76.00;102865.00;5015704;28;20030;-45
2022/04/17 05:42:17;;;;;;;14.15;7.65;;;;;;;5.29;76.56;102866.47;5017688;28;20037;-44
2022/04/17 05:44:43;;;;;;;29.55;8.25;;;;;;;5.32;75.00;102858.38;5017713;28;20506;-45
2022/04/17 05:47:09;;;;;;;13.35;7.40;;;;;;;5.36;75.21;102870.53;5014491;28;20025;-45
2022/04/17 05:49:34;;;;;;;10.45;6.72;;;;;;;5.45;75.43;102862.13;5009052;28;20030;-45
2022/04/17 05:52:00;;;;;;;12.32;7.30;;;;;;;5.49;74.01;102862.81;5014692;28;20085;-45
2022/04/17 05:54:26;;;;;;;13.57;7.30;;;;;;;5.56;74.14;102864.22;5017242;28;20068;-48
2022/04/17 05:56:51;;;;;;;11.70;7.10;;;;;;;5.64;73.78;102862.03;5017180;28;20033;-45
2022/04/17 05:59:16;;;;;;;13.13;6.95;;;;;;;5.72;73.06;102869.59;5000291;28;20036;-45
2022/04/17 06:01:41;;;;;;;13.75;7.30;;;;;;;5.77;74.11;102873.72;5016649;28;20107;-46
2022/04/17 06:04:07;;;;;;;16.05;7.15;;;;;;;5.83;72.62;102869.88;5017154;28;20041;-46
2022/04/17 06:06:32;;;;;;;13.93;7.32;;;;;;;5.90;74.84;102873.94;5015956;28;20394;-45
2022/04/17 06:08:58;;;;;;;11.82;6.82;;;;;;;5.95;72.63;102869.25;5017008;28;20037;-46
2022/04/17 06:11:23;;;;;;;11.57;6.60;;;;;;;6.01;71.35;102867.22;5015475;28;20733;-45
2022/04/17 06:13:49;;;;;;;12.30;7.20;;;;;;;6.08;71.49;102874.78;5017491;28;20115;-46
2022/04/17 06:16:14;;;;;;;13.07;6.90;;;;;;;6.14;71.24;102877.13;5017016;28;20484;-45
2022/04/17 06:18:39;;;;;;;15.30;6.90;;;;;;;6.23;71.36;102870.47;5015381;28;20064;-47
2022/04/17 06:21:04;;;;;;;13.05;7.20;;;;;;;6.27;70.50;102865.84;5016600;28;20018;-44
2022/04/17 06:23:30;;;;;;;11.93;6.53;;;;;;;6.34;69.82;102869.88;5006306;28;20030;-46
2022/04/17 06:25:55;;;;;;;15.55;7.25;;;;;;;6.43;70.02;102868.50;4997251;28;20356;-46
2022/04/17 06:28:20;;;;;;;12.85;6.85;;;;;;;6.48;69.07;102866.47;5017017;28;20671;-45
2022/04/17 06:30:46;;;;;;;12.95;7.07;;;;;;;6.55;68.70;102870.47;5015015;28;20214;-45
2022/04/17 06:33:11;;;;;;;11.07;6.65;;;;;;;6.65;69.58;102860.22;5008629;28;20029;-47
2022/04/17 06:35:36;;;;;;;12.55;6.90;;;;;;;6.69;69.25;102859.13;4998843;28;20125;-46
2022/04/17 06:38:02;;;;;;;12.60;6.45;;;;;;;6.78;67.43;102858.59;5010744;28;20129;-46
2022/04/17 06:40:31;;;;;;;10.93;6.68;;;;;;;6.90;67.68;102870.31;5013945;28;20098;-46
2022/04/17 06:43:00;;;;;;;10.63;6.60;;;;;;;7.00;66.82;102863.53;5012409;28;21068;-48
2022/04/17 06:45:26;;;;;;;10.48;6.60;;;;;;;7.12;66.36;102866.44;5013702;28;20037;-47
2022/04/17 06:47:51;;;;;;;9.13;6.13;;;;;;;7.23;65.87;102858.69;5000125;28;20021;-45
2022/04/17 06:50:18;;;;;;;12.57;5.97;;;;;;;7.34;65.00;102861.59;5015938;28;20044;-44
2022/04/17 06:52:44;;;;;;;13.85;6.50;;;;;;;7.46;64.87;102863.50;5022561;28;20318;-47
2022/04/17 06:55:11;;;;;;;10.05;5.97;;;;;;;7.61;65.77;102860.91;5025184;28;20036;-47
2022/04/17 06:57:39;;;;;;;12.32;5.90;;;;;;;7.71;62.80;102855.88;4998232;28;20443;-47
2022/04/17 07:00:09;;;;;;;12.73;6.35;;;;;;;7.80;62.94;102858.81;5012538;28;20025;-45
2022/04/17 07:02:35;;;;;;;15.48;5.82;;;;;;;7.89;61.69;102862.75;5002928;28;20467;-46
2022/04/17 07:05:01;;;;;;;9.57;5.95;;;;;;;8.00;62.72;102864.75;5016247;28;20022;-46
2022/04/17 07:07:26;;;;;;;10.77;6.28;;;;;;;8.06;62.29;102851.03;5009400;28;20122;-46
2022/04/17 07:09:51;;;;;;;9.98;6.20;;;;;;;8.17;63.03;102867.22;5023546;28;20446;-47
2022/04/17 07:12:17;;;;;;;14.10;6.63;;;;;;;8.27;61.91;102858.66;5021153;28;20182;-46
2022/04/17 07:14:42;;;;;;;12.23;6.32;;;;;;;8.35;62.09;102859.88;5008827;28;20072;-48
2022/04/17 07:17:07;;;;;;;10.23;6.20;;;;;;;8.45;61.44;102849.53;5015972;28;20037;-46
2022/04/17 07:19:33;;;;;;;10.60;6.45;;;;;;;8.63;61.82;102849.31;5012591;28;20067;-44
2022/04/17 07:21:58;;;;;;;12.68;6.10;;;;;;;8.78;61.52;102858.97;5018591;28;20075;-46
2022/04/17 07:24:24;;;;;;;14.50;6.22;;;;;;;8.93;61.32;102847.31;5016033;28;20025;-45
2022/04/17 07:26:53;;;;;;;16.02;6.25;;;;;;;9.07;60.27;102849.06;5013611;28;20505;-48
2022/04/17 07:29:22;;;;;;;12.40;5.75;;;;;;;9.17;58.95;102846.66;5014172;28;20056;-48
2022/04/17 07:31:51;;;;;;;11.00;5.70;;;;;;;9.30;58.90;102834.19;5020817;28;20025;-47
2022/04/17 07:34:18;;;;;;;8.52;5.68;;;;;;;9.50;59.11;102839.97;5006236;28;20060;-44
2022/04/17 07:36:43;;;;;;;8.65;5.35;;;;;;;9.68;57.79;102838.72;5014236;28;20061;-45
2022/04/17 07:39:09;;;;;;;35.65;18.88;;;;;;;9.84;58.21;102841.19;5015836;28;20107;-47
2022/04/17 07:41:34;;;;;;;10.15;5.10;;;;;;;10.01;57.48;102840.00;5001230;28;20249;-48
2022/04/17 07:43:59;;;;;;;10.50;5.72;;;;;;;10.11;56.67;102829.50;5017236;28;20036;-46
2022/04/17 07:46:25;;;;;;;9.25;5.10;;;;;;;10.23;55.42;102835.78;5015369;28;20060;-48
2022/04/17 07:48:50;;;;;;;9.75;4.88;;;;;;;10.41;55.03;102830.97;5012780;28;20502;-45
2022/04/17 07:51:15;;;;;;;10.93;5.07;;;;;;;10.50;53.72;102835.66;5010987;28;20039;-44
2022/04/17 07:53:41;;;;;;;9.45;4.90;;;;;;;10.64;54.06;102827.50;5011002;28;20116;-44
2022/04/17 07:56:06;;;;;;;7.03;5.07;;;;;;;10.77;53.86;102829.25;5014439;28;20036;-45
2022/04/17 07:58:34;;;;;;;6.30;4.93;;;;;;;10.88;53.00;102817.75;5015326;28;20049;-47
2022/04/17 08:01:09;;;;;;;7.10;4.63;;;;;;;10.94;50.67;102822.66;5014384;28;20025;-48
2022/04/17 08:03:37;;;;;;;7.40;4.88;;;;;;;11.07;53.65;102820.75;5008854;28;20029;-46
2022/04/17 08:06:07;;;;;;;7.38;5.25;;;;;;;11.16;51.89;102821.88;5014234;28;20025;-45
2022/04/17 08:08:37;;;;;;;8.57;5.03;;;;;;;11.27;51.30;102821.94;5013525;28;20379;-45
2022/04/17 08:11:04;;;;;;;6.63;4.72;;;;;;;11.41;51.06;102826.22;5013187;28;20044;-50
2022/04/17 08:13:29;;;;;;;8.48;4.90;;;;;;;11.57;51.73;102816.03;5007152;28;20037;-45
2022/04/17 08:15:54;;;;;;;10.40;5.10;;;;;;;11.67;50.09;102818.00;5010149;28;20017;-45
2022/04/17 08:18:20;;;;;;;7.43;4.72;;;;;;;11.75;49.15;102818.25;5010263;28;20431;-45
2022/04/17 08:20:45;;;;;;;9.50;5.00;;;;;;;11.91;48.79;102820.59;5007917;28;20018;-44
2022/04/17 08:23:10;;;;;;;8.27;4.80;;;;;;;12.04;47.61;102818.66;5009765;28;20539;-46
2022/04/17 08:25:36;;;;;;;12.30;4.90;;;;;;;12.18;47.63;102817.53;5015822;28;20107;-45
2022/04/17 08:28:02;;;;;;;10.10;4.50;;;;;;;12.33;46.35;102818.13;5016306;28;20070;-46
2022/04/17 08:30:30;;;;;;;6.18;4.28;;;;;;;12.43;46.42;102824.47;5015050;28;20034;-46
2022/04/17 08:32:56;;;;;;;10.18;4.97;;;;;;;12.54;46.70;102826.25;5026594;28;20052;-45
2022/04/17 08:35:22;;;;;;;7.32;4.50;;;;;;;12.69;45.04;102821.47;5013204;28;20136;-46
2022/04/17 08:37:48;;;;;;;10.25;4.38;;;;;;;12.83;45.38;102826.56;5014854;28;20049;-45
2022/04/17 08:40:14;;;;;;;7.90;4.50;;;;;;;13.02;48.32;102819.66;5014200;28;20657;-46
2022/04/17 08:42:40;;;;;;;9.93;3.90;;;;;;;13.14;43.84;102821.31;5012365;28;20017;-46
2022/04/17 08:45:09;;;;;;;7.60;4.25;;;;;;;13.16;41.98;102813.13;5011200;28;20063;-45
2022/04/17 08:47:37;;;;;;;5.78;3.97;;;;;;;13.18;43.02;102808.47;5017028;28;20117;-49
2022/04/17 08:50:06;;;;;;;7.40;4.32;;;;;;;13.31;42.66;102808.31;5012418;28;20111;-48
2022/04/17 08:52:33;;;;;;;9.15;4.30;;;;;;;13.41;40.36;102809.25;5013446;28;20033;-45
2022/04/17 08:54:59;;;;;;;7.80;4.32;;;;;;;13.50;41.75;102803.06;5010113;28;20102;-47
2022/04/17 08:57:25;;;;;;;7.97;3.80;;;;;;;13.52;40.64;102805.63;5014878;28;20648;-46
2022/04/17 08:59:50;;;;;;;8.93;4.38;;;;;;;13.57;39.21;102798.03;5012744;28;20162;-45
2022/04/17 09:02:17;;;;;;;8.57;4.03;;;;;;;13.74;40.86;102797.41;5013337;28;20017;-45
2022/04/17 09:04:42;;;;;;;7.90;4.00;;;;;;;14.01;43.83;102805.88;5012293;28;20498;-48
2022/04/17 09:07:12;;;;;;;5.32;3.90;;;;;;;14.07;38.75;102795.44;5005325;28;20033;-45
2022/04/17 09:09:38;;;;;;;6.50;3.70;;;;;;;14.25;38.93;102792.06;5011989;28;20036;-46
2022/04/17 09:12:04;;;;;;;6.18;4.00;;;;;;;14.15;37.91;102786.66;5011204;28;20349;-47
2022/04/17 09:14:29;;;;;;;9.05;3.90;;;;;;;14.35;40.99;102792.94;5013595;28;20029;-48
2022/04/17 09:16:55;;;;;;;6.22;3.80;;;;;;;14.54;39.90;102797.50;5012858;28;20512;-47
2022/04/17 09:19:20;;;;;;;6.82;4.03;;;;;;;14.73;38.13;102784.13;5013234;28;20017;-48
2022/04/17 09:21:54;;;;;;;7.88;3.95;;;;;;;14.86;39.31;102783.81;5016780;28;20022;-46
2022/04/17 09:24:22;;;;;;;6.80;4.05;;;;;;;15.03;37.54;102787.63;5008630;28;20045;-46
2022/04/17 09:26:54;;;;;;;8.73;4.03;;;;;;;15.11;37.57;102785.09;5016615;28;20254;-49
2022/04/17 09:29:24;;;;;;;6.45;3.80;;;;;;;15.18;39.51;102779.97;5010574;28;20501;-47
2022/04/17 09:31:58;;;;;;;9.27;4.13;;;;;;;15.25;37.33;102777.56;5014334;28;20025;-50
2022/04/17 09:34:25;;;;;;;8.98;4.07;;;;;;;15.21;35.87;102778.88;5016384;28;20017;-46
2022/04/17 09:37:00;;;;;;;6.28;4.00;;;;;;;15.25;37.23;102781.09;5026536;28;20439;-48
2022/04/17 09:39:35;;;;;;;9.13;4.00;;;;;;;15.36;36.30;102771.16;5014140;28;20456;-46
2022/04/17 09:42:05;;;;;;;6.70;3.88;;;;;;;15.41;34.81;102760.78;5015583;28;20523;-46
2022/04/17 09:44:34;;;;;;;9.32;3.88;;;;;;;15.40;35.33;102765.34;5015710;28;20105;-46
2022/04/17 09:46:59;;;;;;;8.07;4.07;;;;;;;15.64;37.32;102756.75;5030380;28;20494;-47
2022/04/17 09:49:25;;;;;;;6.43;4.00;;;;;;;15.79;37.60;102762.53;5014428;28;20030;-47
2022/04/17 09:52:05;;;;;;;6.07;4.13;;;;;;;16.00;37.44;102750.66;5015988;28;20027;-46
2022/04/17 09:54:31;;;;;;;9.68;4.15;;;;;;;16.16;35.91;102748.16;5012747;28;20113;-46
2022/04/17 09:56:56;;;;;;;5.70;3.97;;;;;;;16.19;33.95;102749.69;5014865;28;20083;-47
2022/04/17 09:59:23;;;;;;;11.98;3.75;;;;;;;16.32;35.54;102743.94;5017588;28;20021;-45
2022/04/17 10:01:51;;;;;;;5.88;3.45;;;;;;;16.30;34.31;102738.72;5016361;28;20940;-46
2022/04/17 10:04:19;;;;;;;5.97;3.55;;;;;;;16.34;34.86;102728.47;5015269;28;20021;-45
2022/04/17 10:06:46;;;;;;;7.05;3.60;;;;;;;16.46;34.45;102724.53;5015648;28;20018;-47
2022/04/17 10:09:13;;;;;;;7.43;3.70;;;;;;;16.44;34.16;102728.41;5016187;28;20026;-46
2022/04/17 10:11:40;;;;;;;5.80;3.80;;;;;;;16.59;35.64;102718.75;5014230;28;20031;-48
2022/04/17 10:14:06;;;;;;;13.68;4.43;;;;;;;16.67;35.56;102718.00;5014173;28;20037;-49
2022/04/17 10:16:33;;;;;;;11.27;3.90;;;;;;;16.67;34.35;102712.59;5014467;28;20022;-46
2022/04/17 10:19:04;;;;;;;7.68;4.25;;;;;;;16.77;36.23;102708.81;5009507;28;20310;-50
2022/04/17 10:21:34;;;;;;;6.20;3.92;;;;;;;16.91;37.86;102698.47;5011186;28;20048;-47
2022/04/17 10:24:02;;;;;;;6.18;4.20;;;;;;;16.92;36.64;102701.03;5013106;28;20507;-45
2022/04/17 10:26:32;;;;;;;7.10;3.97;;;;;;;17.13;36.43;102694.41;5012161;28;20041;-45
2022/04/17 10:29:00;;;;;;;9.98;3.60;;;;;;;17.29;33.87;102688.25;5016294;28;20033;-45
2022/04/17 10:31:42;;;;;;;5.38;3.38;;;;;;;17.48;34.32;102690.72;5010388;28;20507;-44
2022/04/17 10:34:35;;;;;;;8.70;3.70;;;;;;;17.46;34.65;102683.78;5013593;28;20548;-46
2022/04/17 10:37:46;;;;;;;6.45;3.60;;;;;;;17.65;34.15;102678.13;5015149;28;20425;-45
2022/04/17 10:40:12;;;;;;;7.32;3.85;;;;;;;17.69;33.92;102676.78;5011765;28;20025;-46
2022/04/17 10:42:59;;;;;;;6.20;3.60;;;;;;;17.85;34.40;102670.59;5013459;28;20110;-47
2022/04/17 10:45:26;;;;;;;6.40;4.10;;;;;;;17.82;34.87;102664.66;5010132;28;20108;-41
2022/04/17 10:48:09;;;;;;;6.57;3.70;;;;;;;17.96;34.72;102660.53;5015051;28;20025;-42
2022/04/17 10:50:47;;;;;;;7.05;3.50;;;;;;;17.96;31.55;102655.94;5015863;28;20696;-44
2022/04/17 10:53:29;;;;;;;6.10;2.92;;;;;;;18.16;32.87;102661.91;5011527;28;20139;-45
2022/04/17 10:56:06;;;;;;;9.43;3.67;;;;;;;18.27;31.88;102656.16;5007776;28;20030;-43
2022/04/17 10:58:48;;;;;;;7.28;3.50;;;;;;;18.34;32.99;102650.91;5014843;28;20014;-41
2022/04/17 11:01:14;;;;;;;8.52;3.95;;;;;;;18.43;32.18;102633.69;5014536;28;20170;-46
2022/04/17 11:03:52;;;;;;;9.15;3.10;;;;;;;18.55;31.76;102649.56;5004171;28;20041;-43
2022/04/17 11:06:31;;;;;;;11.57;3.63;;;;;;;18.56;30.61;102641.28;4998496;28;20132;-44
2022/04/17 11:09:22;;;;;;;5.85;3.50;;;;;;;18.63;30.28;102636.91;5014577;28;20029;-42
2022/04/17 11:11:48;;;;;;;5.75;3.10;;;;;;;18.70;29.65;102628.06;5016141;28;20087;-43
2022/04/17 11:14:20;;;;;;;5.07;3.28;;;;;;;18.66;28.02;102626.75;5015344;28;20506;-41
2022/04/17 11:16:57;;;;;;;8.68;2.97;;;;;;;18.84;28.74;102630.13;5015911;28;20022;-42
2022/04/17 11:19:33;;;;;;;6.35;3.10;;;;;;;18.89;27.72;102621.47;4993838;28;20129;-43
2022/04/17 11:22:04;;;;;;;5.70;3.40;;;;;;;18.90;26.83;102621.28;4999364;28;20125;-42
2022/04/17 11:24:55;;;;;;;6.43;3.45;;;;;;;19.09;27.93;102617.34;5010506;28;20463;-43
2022/04/17 11:27:49;;;;;;;9.52;3.30;;;;;;;19.22;27.73;102619.50;4997413;28;20490;-44
2022/04/17 11:30:17;;;;;;;6.95;3.40;;;;;;;19.42;28.33;102608.25;5006782;28;20216;-42
2022/04/17 11:32:42;;;;;;;4.95;3.00;;;;;;;19.57;28.02;102612.75;5002988;28;20473;-41
2022/04/17 11:35:10;;;;;;;7.73;3.07;;;;;;;19.61;25.81;102604.25;5014226;28;20037;-42
2022/04/17 11:37:35;;;;;;;8.02;2.83;;;;;;;19.63;27.15;102599.50;5013741;28;20069;-45